sensor_id;sensor_type;location;lat;lon;timestamp;temperature;humidity
25906;DHT22;13713;52.552;13.204;2023-02-03T00:01:29;14.30;63.80
25906;DHT22;13713;52.552;13.204;2023-02-03T00:03:55;14.20;64.50
25906;DHT22;13713;52.552;13.204;2023-02-03T00:06:20;14.20;63.70
25906;DHT22;13713;52.552;13.204;2023-02-03T00:08:46;14.20;63.80
25906;DHT22;13713;52.552;13.204;2023-02-03T00:11:13;14.20;63.90
25906;DHT22;13713;52.552;13.204;2023-02-03T00:13:38;14.20;63.80
25906;DHT22;13713;52.552;13.204;2023-02-03T00:16:04;14.20;63.80
25906;DHT22;13713;52.552;13.204;2023-02-03T00:18:31;14.20;63.70
25906;DHT22;13713;52.552;13.204;2023-02-03T00:20:57;14.20;63.70
25906;DHT22;13713;52.552;13.204;2023-02-03T00:23:23;14.20;63.70
25906;DHT22;13713;52.552;13.204;2023-02-03T00:25:50;14.20;63.70
25906;DHT22;13713;52.552;13.204;2023-02-03T00:28:17;14.20;63.60
25906;DHT22;13713;52.552;13.204;2023-02-03T00:30:42;14.20;63.70
25906;DHT22;13713;52.552;13.204;2023-02-03T00:33:09;14.20;63.60
25906;DHT22;13713;52.552;13.204;2023-02-03T00:35:38;14.10;63.50
25906;DHT22;13713;52.552;13.204;2023-02-03T00:38:05;14.20;63.60
25906;DHT22;13713;52.552;13.204;2023-02-03T00:40:31;14.10;63.60
25906;DHT22;13713;52.552;13.204;2023-02-03T00:42:56;14.10;63.60
25906;DHT22;13713;52.552;13.204;2023-02-03T00:45:22;14.10;63.60
25906;DHT22;13713;52.552;13.204;2023-02-03T00:47:48;14.10;63.60
25906;DHT22;13713;52.552;13.204;2023-02-03T00:50:14;14.10;63.50
25906;DHT22;13713;52.552;13.204;2023-02-03T00:52:40;14.10;63.40
25906;DHT22;13713;52.552;13.204;2023-02-03T00:55:06;14.10;63.50
25906;DHT22;13713;52.552;13.204;2023-02-03T00:57:32;14.10;63.50
25906;DHT22;13713;52.552;13.204;2023-02-03T00:59:58;14.10;63.50
25906;DHT22;13713;52.552;13.204;2023-02-03T01:02:23;14.10;63.50
25906;DHT22;13713;52.552;13.204;2023-02-03T01:04:51;14.10;63.60
25906;DHT22;13713;52.552;13.204;2023-02-03T01:07:17;14.10;63.60
25906;DHT22;13713;52.552;13.204;2023-02-03T01:09:42;14.10;63.60
25906;DHT22;13713;52.552;13.204;2023-02-03T01:12:09;14.20;63.70
25906;DHT22;13713;52.552;13.204;2023-02-03T01:14:35;14.10;63.60
25906;DHT22;13713;52.552;13.204;2023-02-03T01:17:03;14.00;63.50
25906;DHT22;13713;52.552;13.204;2023-02-03T01:19:28;14.00;63.50
25906;DHT22;13713;52.552;13.204;2023-02-03T01:21:54;14.00;63.40
25906;DHT22;13713;52.552;13.204;2023-02-03T01:24:20;14.00;63.50
25906;DHT22;13713;52.552;13.204;2023-02-03T01:26:46;13.90;63.40
25906;DHT22;13713;52.552;13.204;2023-02-03T01:29:12;14.00;63.50
25906;DHT22;13713;52.552;13.204;2023-02-03T01:31:40;14.10;63.50
25906;DHT22;13713;52.552;13.204;2023-02-03T01:34:10;14.00;63.40
25906;DHT22;13713;52.552;13.204;2023-02-03T01:36:36;14.00;63.40
25906;DHT22;13713;52.552;13.204;2023-02-03T01:39:03;14.00;63.40
25906;DHT22;13713;52.552;13.204;2023-02-03T01:41:33;13.90;63.30
25906;DHT22;13713;52.552;13.204;2023-02-03T01:44:00;14.00;63.40
25906;DHT22;13713;52.552;13.204;2023-02-03T01:46:46;14.00;63.30
25906;DHT22;13713;52.552;13.204;2023-02-03T01:49:23;14.00;63.40
25906;DHT22;13713;52.552;13.204;2023-02-03T01:51:49;14.00;63.40
25906;DHT22;13713;52.552;13.204;2023-02-03T01:54:39;14.00;63.40
25906;DHT22;13713;52.552;13.204;2023-02-03T01:57:14;14.00;63.40
25906;DHT22;13713;52.552;13.204;2023-02-03T01:59:42;14.00;63.50
25906;DHT22;13713;52.552;13.204;2023-02-03T02:02:08;14.00;63.40
25906;DHT22;13713;52.552;13.204;2023-02-03T02:04:42;14.00;63.40
25906;DHT22;13713;52.552;13.204;2023-02-03T02:07:10;14.00;63.40
25906;DHT22;13713;52.552;13.204;2023-02-03T02:09:39;14.00;63.40
25906;DHT22;13713;52.552;13.204;2023-02-03T02:12:05;13.90;63.40
25906;DHT22;13713;52.552;13.204;2023-02-03T02:14:30;14.00;63.40
25906;DHT22;13713;52.552;13.204;2023-02-03T02:17:27;14.00;63.30
25906;DHT22;13713;52.552;13.204;2023-02-03T02:22:54;13.90;63.30
25906;DHT22;13713;52.552;13.204;2023-02-03T02:25:33;13.90;63.20
25906;DHT22;13713;52.552;13.204;2023-02-03T02:28:17;13.90;63.30
25906;DHT22;13713;52.552;13.204;2023-02-03T02:34:07;13.90;63.30
25906;DHT22;13713;52.552;13.204;2023-02-03T02:39:33;13.90;63.20
25906;DHT22;13713;52.552;13.204;2023-02-03T02:42:12;13.90;63.20
25906;DHT22;13713;52.552;13.204;2023-02-03T02:44:43;13.90;63.20
25906;DHT22;13713;52.552;13.204;2023-02-03T02:47:18;13.80;63.20
25906;DHT22;13713;52.552;13.204;2023-02-03T02:50:03;13.90;63.20
25906;DHT22;13713;52.552;13.204;2023-02-03T02:52:34;13.90;63.30
25906;DHT22;13713;52.552;13.204;2023-02-03T02:55:06;13.90;64.10
25906;DHT22;13713;52.552;13.204;2023-02-03T02:57:36;13.90;63.30
25906;DHT22;13713;52.552;13.204;2023-02-03T03:00:04;13.90;63.20
25906;DHT22;13713;52.552;13.204;2023-02-03T03:02:35;13.90;63.30
25906;DHT22;13713;52.552;13.204;2023-02-03T03:05:04;13.80;63.10
25906;DHT22;13713;52.552;13.204;2023-02-03T03:07:37;13.80;63.20
25906;DHT22;13713;52.552;13.204;2023-02-03T03:10:08;13.80;63.20
25906;DHT22;13713;52.552;13.204;2023-02-03T03:12:38;13.80;63.20
25906;DHT22;13713;52.552;13.204;2023-02-03T03:15:10;13.90;63.20
25906;DHT22;13713;52.552;13.204;2023-02-03T03:17:44;13.80;63.20
25906;DHT22;13713;52.552;13.204;2023-02-03T03:20:15;13.80;63.20
25906;DHT22;13713;52.552;13.204;2023-02-03T03:22:46;13.80;63.20
25906;DHT22;13713;52.552;13.204;2023-02-03T03:25:18;13.80;63.20
25906;DHT22;13713;52.552;13.204;2023-02-03T03:27:50;13.80;63.20
25906;DHT22;13713;52.552;13.204;2023-02-03T03:30:24;13.90;63.40
25906;DHT22;13713;52.552;13.204;2023-02-03T03:32:50;13.80;63.20
25906;DHT22;13713;52.552;13.204;2023-02-03T03:35:16;13.80;63.20
25906;DHT22;13713;52.552;13.204;2023-02-03T03:37:45;13.80;63.20
25906;DHT22;13713;52.552;13.204;2023-02-03T03:40:22;13.80;63.30
25906;DHT22;13713;52.552;13.204;2023-02-03T03:43:04;13.80;63.30
25906;DHT22;13713;52.552;13.204;2023-02-03T03:48:22;13.80;63.30
25906;DHT22;13713;52.552;13.204;2023-02-03T03:50:57;13.80;63.20
25906;DHT22;13713;52.552;13.204;2023-02-03T03:53:26;13.80;63.30
25906;DHT22;13713;52.552;13.204;2023-02-03T03:55:54;13.80;63.30
25906;DHT22;13713;52.552;13.204;2023-02-03T03:58:29;13.80;63.30
25906;DHT22;13713;52.552;13.204;2023-02-03T04:00:57;13.80;63.30
25906;DHT22;13713;52.552;13.204;2023-02-03T04:03:29;13.70;63.30
25906;DHT22;13713;52.552;13.204;2023-02-03T04:05:56;13.80;63.30
25906;DHT22;13713;52.552;13.204;2023-02-03T04:08:22;13.80;63.30
25906;DHT22;13713;52.552;13.204;2023-02-03T04:10:48;13.80;63.30
25906;DHT22;13713;52.552;13.204;2023-02-03T04:13:13;13.70;63.40
25906;DHT22;13713;52.552;13.204;2023-02-03T04:15:40;13.70;63.40
25906;DHT22;13713;52.552;13.204;2023-02-03T04:18:06;13.70;63.40
25906;DHT22;13713;52.552;13.204;2023-02-03T04:20:32;13.70;63.40
25906;DHT22;13713;52.552;13.204;2023-02-03T04:22:58;13.70;63.50
25906;DHT22;13713;52.552;13.204;2023-02-03T04:25:24;13.70;63.60
25906;DHT22;13713;52.552;13.204;2023-02-03T04:27:50;13.70;63.70
25906;DHT22;13713;52.552;13.204;2023-02-03T04:30:16;13.70;63.80
25906;DHT22;13713;52.552;13.204;2023-02-03T04:32:43;13.70;63.70
25906;DHT22;13713;52.552;13.204;2023-02-03T04:35:10;13.80;63.80
25906;DHT22;13713;52.552;13.204;2023-02-03T04:37:35;13.80;63.60
25906;DHT22;13713;52.552;13.204;2023-02-03T04:40:01;13.80;63.60
25906;DHT22;13713;52.552;13.204;2023-02-03T04:42:27;13.80;63.80
25906;DHT22;13713;52.552;13.204;2023-02-03T04:44:52;13.80;64.10
25906;DHT22;13713;52.552;13.204;2023-02-03T04:47:18;13.80;63.70
25906;DHT22;13713;52.552;13.204;2023-02-03T04:49:44;13.80;63.60
25906;DHT22;13713;52.552;13.204;2023-02-03T04:52:11;13.80;63.50
25906;DHT22;13713;52.552;13.204;2023-02-03T04:54:37;13.80;63.50
25906;DHT22;13713;52.552;13.204;2023-02-03T04:57:03;13.80;63.50
25906;DHT22;13713;52.552;13.204;2023-02-03T04:59:29;13.80;63.50
25906;DHT22;13713;52.552;13.204;2023-02-03T05:01:54;13.80;63.40
25906;DHT22;13713;52.552;13.204;2023-02-03T05:04:20;13.80;63.50
25906;DHT22;13713;52.552;13.204;2023-02-03T05:06:46;13.90;63.50
25906;DHT22;13713;52.552;13.204;2023-02-03T05:09:12;13.80;63.40
25906;DHT22;13713;52.552;13.204;2023-02-03T05:11:38;13.80;63.50
25906;DHT22;13713;52.552;13.204;2023-02-03T05:14:04;13.90;63.50
25906;DHT22;13713;52.552;13.204;2023-02-03T05:16:29;13.90;63.50
25906;DHT22;13713;52.552;13.204;2023-02-03T05:18:55;13.90;63.50
25906;DHT22;13713;52.552;13.204;2023-02-03T05:21:21;14.00;63.60
25906;DHT22;13713;52.552;13.204;2023-02-03T05:23:46;13.90;63.50
25906;DHT22;13713;52.552;13.204;2023-02-03T05:26:12;13.90;63.60
25906;DHT22;13713;52.552;13.204;2023-02-03T05:28:38;13.90;63.60
25906;DHT22;13713;52.552;13.204;2023-02-03T05:31:04;13.90;63.60
25906;DHT22;13713;52.552;13.204;2023-02-03T05:33:29;13.90;63.60
25906;DHT22;13713;52.552;13.204;2023-02-03T05:35:55;13.90;63.60
25906;DHT22;13713;52.552;13.204;2023-02-03T05:38:21;13.90;63.60
25906;DHT22;13713;52.552;13.204;2023-02-03T05:40:48;14.00;63.60
25906;DHT22;13713;52.552;13.204;2023-02-03T05:43:32;14.00;64.20
25906;DHT22;13713;52.552;13.204;2023-02-03T05:46:05;14.00;63.70
25906;DHT22;13713;52.552;13.204;2023-02-03T05:48:31;14.00;63.70
25906;DHT22;13713;52.552;13.204;2023-02-03T05:50:57;13.90;63.60
25906;DHT22;13713;52.552;13.204;2023-02-03T05:53:24;14.00;63.70
25906;DHT22;13713;52.552;13.204;2023-02-03T05:55:50;14.00;63.70
25906;DHT22;13713;52.552;13.204;2023-02-03T05:58:16;14.00;63.70
25906;DHT22;13713;52.552;13.204;2023-02-03T06:00:42;14.00;63.70
25906;DHT22;13713;52.552;13.204;2023-02-03T06:03:08;14.00;63.70
25906;DHT22;13713;52.552;13.204;2023-02-03T06:05:34;14.00;63.70
25906;DHT22;13713;52.552;13.204;2023-02-03T06:08:00;14.00;63.70
25906;DHT22;13713;52.552;13.204;2023-02-03T06:10:26;14.10;63.70
25906;DHT22;13713;52.552;13.204;2023-02-03T06:12:52;14.10;63.70
25906;DHT22;13713;52.552;13.204;2023-02-03T06:15:18;14.10;63.80
25906;DHT22;13713;52.552;13.204;2023-02-03T06:17:48;14.20;63.80
25906;DHT22;13713;52.552;13.204;2023-02-03T06:20:16;14.10;63.80
25906;DHT22;13713;52.552;13.204;2023-02-03T06:22:42;14.10;63.80
25906;DHT22;13713;52.552;13.204;2023-02-03T06:25:08;14.10;63.80
25906;DHT22;13713;52.552;13.204;2023-02-03T06:27:34;14.10;63.80
25906;DHT22;13713;52.552;13.204;2023-02-03T06:30:00;14.20;63.80
25906;DHT22;13713;52.552;13.204;2023-02-03T06:32:26;14.20;63.90
25906;DHT22;13713;52.552;13.204;2023-02-03T06:34:51;14.20;63.80
25906;DHT22;13713;52.552;13.204;2023-02-03T06:37:17;14.30;64.10
25906;DHT22;13713;52.552;13.204;2023-02-03T06:39:43;14.20;64.00
25906;DHT22;13713;52.552;13.204;2023-02-03T06:42:09;14.20;64.00
25906;DHT22;13713;52.552;13.204;2023-02-03T06:44:34;14.30;63.90
25906;DHT22;13713;52.552;13.204;2023-02-03T06:47:00;14.20;63.80
25906;DHT22;13713;52.552;13.204;2023-02-03T06:49:28;14.30;63.80
25906;DHT22;13713;52.552;13.204;2023-02-03T06:51:55;14.30;63.70
25906;DHT22;13713;52.552;13.204;2023-02-03T06:54:20;14.30;63.70
25906;DHT22;13713;52.552;13.204;2023-02-03T06:56:46;14.40;64.00
25906;DHT22;13713;52.552;13.204;2023-02-03T06:59:12;14.40;63.90
25906;DHT22;13713;52.552;13.204;2023-02-03T07:01:38;14.20;63.60
25906;DHT22;13713;52.552;13.204;2023-02-03T07:04:04;14.50;63.70
25906;DHT22;13713;52.552;13.204;2023-02-03T07:06:31;14.40;63.60
25906;DHT22;13713;52.552;13.204;2023-02-03T07:09:03;14.40;63.60
25906;DHT22;13713;52.552;13.204;2023-02-03T07:11:30;14.50;63.60
25906;DHT22;13713;52.552;13.204;2023-02-03T07:13:56;14.40;64.40
25906;DHT22;13713;52.552;13.204;2023-02-03T07:16:22;14.40;63.70
25906;DHT22;13713;52.552;13.204;2023-02-03T07:18:47;14.40;63.50
25906;DHT22;13713;52.552;13.204;2023-02-03T07:21:14;14.50;63.80
25906;DHT22;13713;52.552;13.204;2023-02-03T07:23:40;14.50;63.90
25906;DHT22;13713;52.552;13.204;2023-02-03T07:26:06;14.50;63.70
25906;DHT22;13713;52.552;13.204;2023-02-03T07:28:33;14.40;63.80
25906;DHT22;13713;52.552;13.204;2023-02-03T07:30:59;14.50;63.90
25906;DHT22;13713;52.552;13.204;2023-02-03T07:33:25;14.50;64.00
25906;DHT22;13713;52.552;13.204;2023-02-03T07:35:52;14.50;63.90
25906;DHT22;13713;52.552;13.204;2023-02-03T07:38:18;14.50;63.90
25906;DHT22;13713;52.552;13.204;2023-02-03T07:40:43;14.50;64.00
25906;DHT22;13713;52.552;13.204;2023-02-03T07:43:09;14.50;64.30
25906;DHT22;13713;52.552;13.204;2023-02-03T07:45:35;14.50;64.40
25906;DHT22;13713;52.552;13.204;2023-02-03T07:48:00;14.60;64.20
25906;DHT22;13713;52.552;13.204;2023-02-03T07:50:26;14.60;64.00
25906;DHT22;13713;52.552;13.204;2023-02-03T07:52:52;14.60;64.10
25906;DHT22;13713;52.552;13.204;2023-02-03T07:55:17;14.60;64.10
25906;DHT22;13713;52.552;13.204;2023-02-03T07:57:43;14.60;64.10
25906;DHT22;13713;52.552;13.204;2023-02-03T08:00:11;14.60;64.10
25906;DHT22;13713;52.552;13.204;2023-02-03T08:02:38;14.60;64.30
25906;DHT22;13713;52.552;13.204;2023-02-03T08:05:04;14.60;64.40
25906;DHT22;13713;52.552;13.204;2023-02-03T08:07:30;14.60;64.50
25906;DHT22;13713;52.552;13.204;2023-02-03T08:09:56;14.60;64.60
25906;DHT22;13713;52.552;13.204;2023-02-03T08:12:21;14.50;64.50
25906;DHT22;13713;52.552;13.204;2023-02-03T08:14:47;14.70;64.90
25906;DHT22;13713;52.552;13.204;2023-02-03T08:17:12;14.70;64.90
25906;DHT22;13713;52.552;13.204;2023-02-03T08:19:38;14.70;64.70
25906;DHT22;13713;52.552;13.204;2023-02-03T08:22:04;14.80;64.70
25906;DHT22;13713;52.552;13.204;2023-02-03T08:24:29;14.70;64.70
25906;DHT22;13713;52.552;13.204;2023-02-03T08:26:55;14.70;64.70
25906;DHT22;13713;52.552;13.204;2023-02-03T08:29:21;14.70;64.60
25906;DHT22;13713;52.552;13.204;2023-02-03T08:31:46;14.70;64.70
25906;DHT22;13713;52.552;13.204;2023-02-03T08:34:12;14.70;65.50
25906;DHT22;13713;52.552;13.204;2023-02-03T08:36:37;14.70;65.00
25906;DHT22;13713;52.552;13.204;2023-02-03T08:39:05;14.70;64.80
25906;DHT22;13713;52.552;13.204;2023-02-03T08:41:31;14.80;64.70
25906;DHT22;13713;52.552;13.204;2023-02-03T08:43:58;14.80;64.90
25906;DHT22;13713;52.552;13.204;2023-02-03T08:46:24;14.70;65.00
25906;DHT22;13713;52.552;13.204;2023-02-03T08:48:49;14.80;65.10
25906;DHT22;13713;52.552;13.204;2023-02-03T08:51:17;14.90;65.10
25906;DHT22;13713;52.552;13.204;2023-02-03T08:53:44;14.90;65.00
25906;DHT22;13713;52.552;13.204;2023-02-03T08:56:11;14.90;64.70
25906;DHT22;13713;52.552;13.204;2023-02-03T08:58:37;15.00;64.60
25906;DHT22;13713;52.552;13.204;2023-02-03T09:01:11;15.00;64.50
25906;DHT22;13713;52.552;13.204;2023-02-03T09:03:38;15.00;64.70
25906;DHT22;13713;52.552;13.204;2023-02-03T09:06:05;15.00;64.60
25906;DHT22;13713;52.552;13.204;2023-02-03T09:08:31;15.10;64.40
25906;DHT22;13713;52.552;13.204;2023-02-03T09:10:57;15.10;64.10
25906;DHT22;13713;52.552;13.204;2023-02-03T09:13:23;15.10;64.10
25906;DHT22;13713;52.552;13.204;2023-02-03T09:15:48;15.00;63.90
25906;DHT22;13713;52.552;13.204;2023-02-03T09:18:14;15.10;64.40
25906;DHT22;13713;52.552;13.204;2023-02-03T09:20:40;15.10;64.20
25906;DHT22;13713;52.552;13.204;2023-02-03T09:23:05;15.10;64.40
25906;DHT22;13713;52.552;13.204;2023-02-03T09:25:32;15.10;64.40
25906;DHT22;13713;52.552;13.204;2023-02-03T09:27:59;15.10;64.50
25906;DHT22;13713;52.552;13.204;2023-02-03T09:30:26;15.10;64.60
25906;DHT22;13713;52.552;13.204;2023-02-03T09:32:52;15.20;64.40
25906;DHT22;13713;52.552;13.204;2023-02-03T09:35:19;15.20;64.10
25906;DHT22;13713;52.552;13.204;2023-02-03T09:37:45;15.20;64.30
25906;DHT22;13713;52.552;13.204;2023-02-03T09:40:21;15.20;64.20
25906;DHT22;13713;52.552;13.204;2023-02-03T09:44:01;15.20;64.10
25906;DHT22;13713;52.552;13.204;2023-02-03T09:45:53;15.20;64.00
25906;DHT22;13713;52.552;13.204;2023-02-03T09:48:24;15.20;64.10
25906;DHT22;13713;52.552;13.204;2023-02-03T09:50:52;15.20;64.10
25906;DHT22;13713;52.552;13.204;2023-02-03T09:55:51;15.30;64.20
25906;DHT22;13713;52.552;13.204;2023-02-03T09:58:18;15.30;64.30
25906;DHT22;13713;52.552;13.204;2023-02-03T10:00:56;15.30;64.30
25906;DHT22;13713;52.552;13.204;2023-02-03T10:03:46;15.30;64.30
25906;DHT22;13713;52.552;13.204;2023-02-03T10:06:37;15.30;64.30
25906;DHT22;13713;52.552;13.204;2023-02-03T10:14:48;15.30;64.30
25906;DHT22;13713;52.552;13.204;2023-02-03T10:17:31;15.30;64.60
25906;DHT22;13713;52.552;13.204;2023-02-03T10:20:21;15.30;64.70
25906;DHT22;13713;52.552;13.204;2023-02-03T10:22:52;15.40;64.70
25906;DHT22;13713;52.552;13.204;2023-02-03T10:25:54;15.40;65.00
25906;DHT22;13713;52.552;13.204;2023-02-03T10:28:17;15.40;65.50
25906;DHT22;13713;52.552;13.204;2023-02-03T10:30:49;15.40;64.70
25906;DHT22;13713;52.552;13.204;2023-02-03T10:33:17;15.40;64.80
25906;DHT22;13713;52.552;13.204;2023-02-03T10:38:40;15.40;64.70
25906;DHT22;13713;52.552;13.204;2023-02-03T10:41:09;15.40;64.80
25906;DHT22;13713;52.552;13.204;2023-02-03T10:43:35;15.50;65.40
25906;DHT22;13713;52.552;13.204;2023-02-03T10:46:26;15.50;65.50
25906;DHT22;13713;52.552;13.204;2023-02-03T10:48:52;15.50;65.00
25906;DHT22;13713;52.552;13.204;2023-02-03T10:53:48;15.50;65.90
25906;DHT22;13713;52.552;13.204;2023-02-03T10:56:22;15.50;65.30
25906;DHT22;13713;52.552;13.204;2023-02-03T10:58:54;15.50;65.50
25906;DHT22;13713;52.552;13.204;2023-02-03T11:01:26;15.50;65.80
25906;DHT22;13713;52.552;13.204;2023-02-03T11:04:03;15.40;64.90
25906;DHT22;13713;52.552;13.204;2023-02-03T11:06:32;15.50;65.00
25906;DHT22;13713;52.552;13.204;2023-02-03T11:08:59;15.60;64.70
25906;DHT22;13713;52.552;13.204;2023-02-03T11:11:27;15.50;64.60
25906;DHT22;13713;52.552;13.204;2023-02-03T11:16:29;15.60;65.00
25906;DHT22;13713;52.552;13.204;2023-02-03T11:19:01;15.60;64.70
25906;DHT22;13713;52.552;13.204;2023-02-03T11:26:58;15.70;64.40
25906;DHT22;13713;52.552;13.204;2023-02-03T11:29:33;15.70;64.50
25906;DHT22;13713;52.552;13.204;2023-02-03T11:34:39;15.80;64.30
25906;DHT22;13713;52.552;13.204;2023-02-03T11:37:49;15.80;64.30
25906;DHT22;13713;52.552;13.204;2023-02-03T11:42:58;15.80;64.20
25906;DHT22;13713;52.552;13.204;2023-02-03T11:47:59;15.80;64.00
25906;DHT22;13713;52.552;13.204;2023-02-03T11:50:46;15.80;63.80
25906;DHT22;13713;52.552;13.204;2023-02-03T12:02:16;15.80;63.60
25906;DHT22;13713;52.552;13.204;2023-02-03T12:07:47;15.90;63.60
25906;DHT22;13713;52.552;13.204;2023-02-03T12:15:47;15.90;63.20
25906;DHT22;13713;52.552;13.204;2023-02-03T12:18:32;16.00;64.00
25906;DHT22;13713;52.552;13.204;2023-02-03T12:29:08;16.10;62.60
25906;DHT22;13713;52.552;13.204;2023-02-03T12:34:46;16.10;62.50
25906;DHT22;13713;52.552;13.204;2023-02-03T12:40:19;16.20;62.30
25906;DHT22;13713;52.552;13.204;2023-02-03T12:43:28;16.10;62.20
25906;DHT22;13713;52.552;13.204;2023-02-03T12:46:11;16.10;62.20
25906;DHT22;13713;52.552;13.204;2023-02-03T12:51:45;16.20;62.00
25906;DHT22;13713;52.552;13.204;2023-02-03T12:56:52;16.20;62.20
25906;DHT22;13713;52.552;13.204;2023-02-03T12:59:22;16.10;61.90
25906;DHT22;13713;52.552;13.204;2023-02-03T13:02:16;16.20;62.00
25906;DHT22;13713;52.552;13.204;2023-02-03T13:04:50;16.20;61.80
25906;DHT22;13713;52.552;13.204;2023-02-03T13:07:38;16.10;61.90
25906;DHT22;13713;52.552;13.204;2023-02-03T13:12:58;16.20;62.00
25906;DHT22;13713;52.552;13.204;2023-02-03T13:15:29;16.10;62.20
25906;DHT22;13713;52.552;13.204;2023-02-03T13:18:07;16.20;62.30
25906;DHT22;13713;52.552;13.204;2023-02-03T13:20:40;16.20;62.30
25906;DHT22;13713;52.552;13.204;2023-02-03T13:23:11;16.20;61.90
25906;DHT22;13713;52.552;13.204;2023-02-03T13:28:36;16.10;61.70
25906;DHT22;13713;52.552;13.204;2023-02-03T13:31:13;16.10;61.70
25906;DHT22;13713;52.552;13.204;2023-02-03T13:33:55;16.10;61.80
25906;DHT22;13713;52.552;13.204;2023-02-03T13:42:20;16.10;61.70
25906;DHT22;13713;52.552;13.204;2023-02-03T13:44:51;16.10;61.90
25906;DHT22;13713;52.552;13.204;2023-02-03T13:47:22;16.10;62.00
25906;DHT22;13713;52.552;13.204;2023-02-03T13:49:54;16.10;62.00
25906;DHT22;13713;52.552;13.204;2023-02-03T13:53:03;16.00;62.00
25906;DHT22;13713;52.552;13.204;2023-02-03T13:56:07;16.10;62.10
25906;DHT22;13713;52.552;13.204;2023-02-03T13:58:40;16.10;62.10
25906;DHT22;13713;52.552;13.204;2023-02-03T14:01:44;16.10;62.30
25906;DHT22;13713;52.552;13.204;2023-02-03T14:09:20;16.10;62.60
25906;DHT22;13713;52.552;13.204;2023-02-03T14:11:51;16.10;62.50
25906;DHT22;13713;52.552;13.204;2023-02-03T14:16:59;16.10;62.50
25906;DHT22;13713;52.552;13.204;2023-02-03T14:19:54;16.10;62.60
25906;DHT22;13713;52.552;13.204;2023-02-03T14:22:20;16.10;62.50
25906;DHT22;13713;52.552;13.204;2023-02-03T14:24:47;16.10;62.60
25906;DHT22;13713;52.552;13.204;2023-02-03T14:27:24;16.00;62.50
25906;DHT22;13713;52.552;13.204;2023-02-03T14:30:06;16.00;62.50
25906;DHT22;13713;52.552;13.204;2023-02-03T14:35:20;16.10;62.60
25906;DHT22;13713;52.552;13.204;2023-02-03T14:37:55;16.10;62.70
25906;DHT22;13713;52.552;13.204;2023-02-03T14:40:55;16.00;62.60
25906;DHT22;13713;52.552;13.204;2023-02-03T14:44:02;16.10;62.60
25906;DHT22;13713;52.552;13.204;2023-02-03T14:47:03;16.10;62.60
25906;DHT22;13713;52.552;13.204;2023-02-03T14:49:28;16.10;62.40
25906;DHT22;13713;52.552;13.204;2023-02-03T14:57:45;16.00;62.30
25906;DHT22;13713;52.552;13.204;2023-02-03T15:05:39;15.90;62.20
25906;DHT22;13713;52.552;13.204;2023-02-03T15:08:28;15.90;62.10
25906;DHT22;13713;52.552;13.204;2023-02-03T15:10:53;15.90;61.90
25906;DHT22;13713;52.552;13.204;2023-02-03T15:13:30;15.80;61.90
25906;DHT22;13713;52.552;13.204;2023-02-03T15:16:01;15.80;61.80
25906;DHT22;13713;52.552;13.204;2023-02-03T15:18:36;15.80;61.80
25906;DHT22;13713;52.552;13.204;2023-02-03T15:21:03;15.80;61.90
25906;DHT22;13713;52.552;13.204;2023-02-03T15:23:40;15.80;61.80
25906;DHT22;13713;52.552;13.204;2023-02-03T15:28:59;15.70;61.70
25906;DHT22;13713;52.552;13.204;2023-02-03T15:34:05;15.70;61.70
25906;DHT22;13713;52.552;13.204;2023-02-03T15:36:49;15.70;61.80
25906;DHT22;13713;52.552;13.204;2023-02-03T15:41:49;15.70;61.70
25906;DHT22;13713;52.552;13.204;2023-02-03T15:44:31;15.70;61.70
25906;DHT22;13713;52.552;13.204;2023-02-03T15:47:01;15.60;61.60
25906;DHT22;13713;52.552;13.204;2023-02-03T15:49:36;15.60;61.60
25906;DHT22;13713;52.552;13.204;2023-02-03T15:52:13;15.60;61.70
25906;DHT22;13713;52.552;13.204;2023-02-03T15:54:43;15.60;61.60
25906;DHT22;13713;52.552;13.204;2023-02-03T15:57:31;15.50;61.50
25906;DHT22;13713;52.552;13.204;2023-02-03T16:00:29;15.50;61.60
25906;DHT22;13713;52.552;13.204;2023-02-03T16:02:57;15.50;61.50
25906;DHT22;13713;52.552;13.204;2023-02-03T16:07:51;15.50;61.50
25906;DHT22;13713;52.552;13.204;2023-02-03T16:10:32;15.50;61.40
25906;DHT22;13713;52.552;13.204;2023-02-03T16:13:24;15.50;61.50
25906;DHT22;13713;52.552;13.204;2023-02-03T16:16:16;15.50;61.60
25906;DHT22;13713;52.552;13.204;2023-02-03T16:18:50;15.50;61.60
25906;DHT22;13713;52.552;13.204;2023-02-03T16:21:26;15.40;61.40
25906;DHT22;13713;52.552;13.204;2023-02-03T16:23:52;15.40;61.50
25906;DHT22;13713;52.552;13.204;2023-02-03T16:26:19;15.40;61.50
25906;DHT22;13713;52.552;13.204;2023-02-03T16:29:10;15.40;61.50
25906;DHT22;13713;52.552;13.204;2023-02-03T16:31:55;15.40;61.60
25906;DHT22;13713;52.552;13.204;2023-02-03T16:34:40;15.40;61.50
25906;DHT22;13713;52.552;13.204;2023-02-03T16:37:30;15.40;61.50
25906;DHT22;13713;52.552;13.204;2023-02-03T16:40:20;15.30;61.40
25906;DHT22;13713;52.552;13.204;2023-02-03T16:43:10;15.30;61.50
25906;DHT22;13713;52.552;13.204;2023-02-03T16:45:56;15.30;61.50
25906;DHT22;13713;52.552;13.204;2023-02-03T16:48:40;15.30;61.50
25906;DHT22;13713;52.552;13.204;2023-02-03T16:51:26;15.30;61.40
25906;DHT22;13713;52.552;13.204;2023-02-03T16:53:53;15.30;61.50
25906;DHT22;13713;52.552;13.204;2023-02-03T16:56:19;15.20;61.50
25906;DHT22;13713;52.552;13.204;2023-02-03T16:58:44;15.20;61.60
25906;DHT22;13713;52.552;13.204;2023-02-03T17:01:10;15.20;61.60
25906;DHT22;13713;52.552;13.204;2023-02-03T17:03:37;15.20;61.60
25906;DHT22;13713;52.552;13.204;2023-02-03T17:06:08;15.20;61.60
25906;DHT22;13713;52.552;13.204;2023-02-03T17:08:34;15.20;61.50
25906;DHT22;13713;52.552;13.204;2023-02-03T17:11:08;15.20;61.50
25906;DHT22;13713;52.552;13.204;2023-02-03T17:13:34;15.20;61.60
25906;DHT22;13713;52.552;13.204;2023-02-03T17:16:07;15.20;61.70
25906;DHT22;13713;52.552;13.204;2023-02-03T17:18:34;15.10;61.50
25906;DHT22;13713;52.552;13.204;2023-02-03T17:21:07;15.10;61.50
25906;DHT22;13713;52.552;13.204;2023-02-03T17:23:33;15.20;61.70
25906;DHT22;13713;52.552;13.204;2023-02-03T17:25:59;15.10;61.50
25906;DHT22;13713;52.552;13.204;2023-02-03T17:28:25;15.00;61.50
25906;DHT22;13713;52.552;13.204;2023-02-03T17:31:05;15.10;61.60
25906;DHT22;13713;52.552;13.204;2023-02-03T17:33:33;15.10;61.60
25906;DHT22;13713;52.552;13.204;2023-02-03T17:36:04;15.10;61.60
25906;DHT22;13713;52.552;13.204;2023-02-03T17:38:36;15.10;61.60
25906;DHT22;13713;52.552;13.204;2023-02-03T17:41:13;15.10;61.60